Time;durP1;ratioP1;P1;durP2;ratioP2;P2;SDS_P1;SDS_P2;PMS_P1;PMS_P2;Temp;Humidity;BMP_temperature;BMP_pressure;BME280_temperature;BME280_humidity;BME280_pressure;Samples;Min_cycle;Max_cycle;Signal;HPM_P1;HPM_P2
2021/10/15 00:00:24;;;;;;;;;;;12.00;93.80;;;;;;4347188;33;42065;-78
2021/10/15 00:02:55;;;;;;;;;;;11.90;93.80;;;;;;4346661;33;45392;-79
2021/10/15 00:05:28;;;;;;;;;;;11.90;93.80;;;;;;4333518;33;42687;-79
2021/10/15 00:08:00;;;;;;;;;;;11.90;93.80;;;;;;4333918;33;43616;-77
2021/10/15 00:10:36;;;;;;;;;;;11.80;93.80;;;;;;4347116;33;43914;-78
2021/10/15 00:13:06;;;;;;;;;;;11.90;93.80;;;;;;4347139;33;43246;-78
2021/10/15 00:15:34;;;;;;;;;;;11.90;93.80;;;;;;4346688;33;42751;-78
2021/10/15 00:18:06;;;;;;;;;;;11.90;93.80;;;;;;4333918;33;43614;-79
2021/10/15 00:20:33;;;;;;;;;;;11.90;93.80;;;;;;4347047;33;43520;-78
2021/10/15 00:23:03;;;;;;;;;;;11.90;93.80;;;;;;4333751;33;43508;-77
2021/10/15 00:25:30;;;;;;;;;;;11.90;93.80;;;;;;4346467;33;42820;-77
2021/10/15 00:28:00;;;;;;;;;;;11.90;93.70;;;;;;4333492;33;42543;-79
2021/10/15 00:30:31;;;;;;;;;;;11.80;93.70;;;;;;4346556;33;42838;-79
2021/10/15 00:33:00;;;;;;;;;;;11.90;93.80;;;;;;4333103;33;44267;-79
2021/10/15 00:35:27;;;;;;;;;;;11.80;93.70;;;;;;4346662;33;43052;-78
2021/10/15 00:38:00;;;;;;;;;;;11.80;93.70;;;;;;4346616;33;43516;-78
2021/10/15 00:40:27;;;;;;;;;;;11.80;93.70;;;;;;4346654;33;43490;-78
2021/10/15 00:42:56;;;;;;;;;;;11.80;93.70;;;;;;4346346;33;43811;-78
2021/10/15 00:45:23;;;;;;;;;;;11.80;93.70;;;;;;4346478;33;43238;-78
2021/10/15 00:47:52;;;;;;;;;;;11.80;93.70;;;;;;4333005;33;44287;-78
2021/10/15 00:50:23;;;;;;;;;;;11.80;93.70;;;;;;4346393;33;43024;-79
2021/10/15 00:52:52;;;;;;;;;;;11.80;93.70;;;;;;4333134;33;46049;-78
2021/10/15 00:55:20;;;;;;;;;;;11.80;93.70;;;;;;4334358;33;20043;-78
2021/10/15 00:57:55;;;;;;;;;;;11.80;93.70;;;;;;4332269;33;43912;-77
2021/10/15 01:00:28;;;;;;;;;;;11.80;93.60;;;;;;4333221;33;44241;-77
2021/10/15 01:02:56;;;;;;;;;;;11.80;93.60;;;;;;4332526;33;44086;-78
2021/10/15 01:05:24;;;;;;;;;;;11.80;93.60;;;;;;4332972;33;44648;-78
2021/10/15 01:07:56;;;;;;;;;;;11.80;93.60;;;;;;4333274;33;43486;-78
2021/10/15 01:10:24;;;;;;;;;;;11.80;93.70;;;;;;4332830;33;42487;-79
2021/10/15 01:12:52;;;;;;;;;;;11.70;93.60;;;;;;4332845;33;44076;-78
2021/10/15 01:15:22;;;;;;;;;;;11.70;93.70;;;;;;4346039;33;43916;-79
2021/10/15 01:17:54;;;;;;;;;;;11.70;93.60;;;;;;4332442;33;42520;-78
2021/10/15 01:20:21;;;;;;;;;;;11.70;93.70;;;;;;4346138;33;43660;-78
2021/10/15 01:22:51;;;;;;;;;;;11.70;93.70;;;;;;4345715;33;42711;-78
2021/10/15 01:25:22;;;;;;;;;;;11.70;93.70;;;;;;4345548;33;43142;-79
2021/10/15 01:27:49;;;;;;;;;;;11.60;93.60;;;;;;4332759;33;43520;-78
2021/10/15 01:30:16;;;;;;;;;;;11.70;93.70;;;;;;4345530;33;43083;-79
2021/10/15 01:32:43;;;;;;;;;;;11.60;93.70;;;;;;4345846;33;42814;-79
2021/10/15 01:35:10;;;;;;;;;;;11.70;93.70;;;;;;4332768;33;43490;-78
2021/10/15 01:37:37;;;;;;;;;;;11.60;93.70;;;;;;4332162;33;42942;-79
2021/10/15 01:40:07;;;;;;;;;;;11.60;93.70;;;;;;4332301;33;43490;-78
2021/10/15 01:42:56;;;;;;;;;;;11.60;93.70;;;;;;4332813;33;45855;-77
2021/10/15 01:45:24;;;;;;;;;;;11.60;93.70;;;;;;4332570;33;43466;-79
2021/10/15 01:47:54;;;;;;;;;;;11.60;93.70;;;;;;4331927;33;43228;-78
2021/10/15 01:50:25;;;;;;;;;;;11.60;93.80;;;;;;4331890;33;45845;-79
2021/10/15 01:52:55;;;;;;;;;;;11.50;93.70;;;;;;4345573;33;43482;-78
2021/10/15 01:55:22;;;;;;;;;;;11.50;93.80;;;;;;4331983;33;43478;-78
2021/10/15 01:57:55;;;;;;;;;;;11.50;93.80;;;;;;4345838;33;43473;-78
2021/10/15 02:00:22;;;;;;;;;;;11.50;93.80;;;;;;4345237;33;42917;-79
2021/10/15 02:02:52;;;;;;;;;;;11.50;93.80;;;;;;4331762;33;45800;-78
2021/10/15 02:05:22;;;;;;;;;;;11.40;93.80;;;;;;4332081;33;44184;-77
2021/10/15 02:07:51;;;;;;;;;;;11.40;93.80;;;;;;4331784;33;42902;-78
2021/10/15 02:10:20;;;;;;;;;;;11.40;93.80;;;;;;4331857;33;43120;-78
2021/10/15 02:12:47;;;;;;;;;;;11.40;93.80;;;;;;4345530;33;43557;-77
2021/10/15 02:15:20;;;;;;;;;;;11.40;93.80;;;;;;4332160;33;43029;-78
2021/10/15 02:17:52;;;;;;;;;;;11.40;93.80;;;;;;4345569;33;43065;-77
2021/10/15 02:20:25;;;;;;;;;;;11.40;93.80;;;;;;4332287;33;42484;-77
2021/10/15 02:22:54;;;;;;;;;;;11.30;93.80;;;;;;4332057;33;43902;-79
2021/10/15 02:25:28;;;;;;;;;;;11.30;93.80;;;;;;4345055;33;43663;-80
2021/10/15 02:27:58;;;;;;;;;;;11.30;93.70;;;;;;4331923;33;45407;-78
2021/10/15 02:30:26;;;;;;;;;;;11.30;93.70;;;;;;4344991;33;44155;-78
2021/10/15 02:32:58;;;;;;;;;;;11.30;93.80;;;;;;4331573;33;42437;-78
2021/10/15 02:35:30;;;;;;;;;;;11.30;93.80;;;;;;4345214;33;44768;-78
2021/10/15 02:38:00;;;;;;;;;;;11.30;93.70;;;;;;4345409;33;44031;-78
2021/10/15 02:40:33;;;;;;;;;;;11.30;93.70;;;;;;4345436;33;44183;-78
2021/10/15 02:43:03;;;;;;;;;;;11.30;93.70;;;;;;4345417;33;43048;-77
2021/10/15 02:45:32;;;;;;;;;;;11.30;93.80;;;;;;4345289;33;45733;-79
2021/10/15 02:48:01;;;;;;;;;;;11.30;93.80;;;;;;4344731;33;43746;-76
2021/10/15 02:50:30;;;;;;;;;;;11.30;93.80;;;;;;4344724;33;43033;-78
2021/10/15 02:52:58;;;;;;;;;;;11.30;93.80;;;;;;4331585;33;44176;-77
2021/10/15 02:55:25;;;;;;;;;;;11.30;93.80;;;;;;4344692;33;43029;-78
2021/10/15 02:57:58;;;;;;;;;;;11.30;93.80;;;;;;4346311;33;20082;-78
2021/10/15 03:00:25;;;;;;;;;;;11.30;93.80;;;;;;4331828;33;44115;-78
2021/10/15 03:02:56;;;;;;;;;;;11.30;93.80;;;;;;4331324;33;43477;-77
2021/10/15 03:05:23;;;;;;;;;;;11.30;93.80;;;;;;4345259;33;43278;-77
2021/10/15 03:07:50;;;;;;;;;;;11.20;93.80;;;;;;4331329;33;44176;-77
2021/10/15 03:10:20;;;;;;;;;;;11.20;93.80;;;;;;4344561;33;45246;-78
2021/10/15 03:12:47;;;;;;;;;;;11.20;93.80;;;;;;4331713;33;45981;-77
2021/10/15 03:15:15;;;;;;;;;;;11.20;93.80;;;;;;4331425;33;43053;-77
2021/10/15 03:17:44;;;;;;;;;;;11.20;93.80;;;;;;4331739;33;43312;-78
2021/10/15 03:20:17;;;;;;;;;;;11.20;93.80;;;;;;4331428;33;43199;-78
2021/10/15 03:22:47;;;;;;;;;;;11.20;93.80;;;;;;4346892;33;42754;-78
2021/10/15 03:25:14;;;;;;;;;;;11.20;93.80;;;;;;4334580;33;43023;-77
2021/10/15 03:27:47;;;;;;;;;;;11.30;93.80;;;;;;4347644;33;43714;-77
2021/10/15 03:30:21;;;;;;;;;;;11.30;93.80;;;;;;4334497;33;45570;-78
2021/10/15 03:32:51;;;;;;;;;;;11.30;93.70;;;;;;4347829;33;43553;-77
2021/10/15 03:35:18;;;;;;;;;;;11.30;93.70;;;;;;4347708;33;43842;-78
2021/10/15 03:37:48;;;;;;;;;;;11.30;93.70;;;;;;4334492;33;43251;-78
2021/10/15 03:40:15;;;;;;;;;;;11.30;93.70;;;;;;4347146;33;42894;-78
2021/10/15 03:42:46;;;;;;;;;;;11.30;93.70;;;;;;4347141;33;43486;-77
2021/10/15 03:45:18;;;;;;;;;;;11.30;93.70;;;;;;4347563;33;42855;-77
2021/10/15 03:47:48;;;;;;;;;;;11.30;93.70;;;;;;4347216;33;43486;-78
2021/10/15 03:50:18;;;;;;;;;;;11.30;93.70;;;;;;4346894;33;44118;-77
2021/10/15 03:52:45;;;;;;;;;;;11.30;93.70;;;;;;4346266;32;43037;-78
2021/10/15 03:55:18;;;;;;;;;;;11.40;93.70;;;;;;4347098;33;42974;-78
2021/10/15 03:57:48;;;;;;;;;;;11.40;93.70;;;;;;4347515;33;42257;-77
2021/10/15 04:00:19;;;;;;;;;;;11.40;93.60;;;;;;4346997;33;43618;-78
2021/10/15 04:02:46;;;;;;;;;;;11.40;93.60;;;;;;4333320;33;42848;-78
2021/10/15 04:05:14;;;;;;;;;;;11.40;93.60;;;;;;4333916;33;43636;-78
2021/10/15 04:07:41;;;;;;;;;;;11.40;93.60;;;;;;4347194;33;43851;-77
2021/10/15 04:10:09;;;;;;;;;;;11.40;93.60;;;;;;4333601;33;45777;-76
2021/10/15 04:12:41;;;;;;;;;;;11.40;93.60;;;;;;4334119;33;43032;-77
2021/10/15 04:15:13;;;;;;;;;;;11.40;93.60;;;;;;4347074;33;42867;-78
2021/10/15 04:17:43;;;;;;;;;;;11.40;93.70;;;;;;4333212;33;44844;-78
2021/10/15 04:20:12;;;;;;;;;;;11.40;93.70;;;;;;4333104;33;43047;-77
2021/10/15 04:22:39;;;;;;;;;;;11.40;93.70;;;;;;4346934;33;44391;-78
2021/10/15 04:25:11;;;;;;;;;;;11.40;93.70;;;;;;4346970;33;43709;-78
2021/10/15 04:27:41;;;;;;;;;;;11.40;93.70;;;;;;4347016;33;43889;-78
2021/10/15 04:30:08;;;;;;;;;;;11.40;93.70;;;;;;4346919;33;42660;-77
2021/10/15 04:32:35;;;;;;;;;;;11.40;93.70;;;;;;4346605;33;43904;-77
2021/10/15 04:35:06;;;;;;;;;;;11.40;93.70;;;;;;4332919;33;43842;-78
2021/10/15 04:37:39;;;;;;;;;;;11.40;93.70;;;;;;4346589;33;43705;-77
2021/10/15 04:40:07;;;;;;;;;;;11.40;93.70;;;;;;4346835;33;43997;-77
2021/10/15 04:42:37;;;;;;;;;;;11.40;93.70;;;;;;4333370;33;43483;-79
2021/10/15 04:45:07;;;;;;;;;;;11.30;93.70;;;;;;4332852;33;43992;-78
2021/10/15 04:47:39;;;;;;;;;;;11.30;93.70;;;;;;4346758;33;45123;-77
2021/10/15 04:50:07;;;;;;;;;;;11.30;93.70;;;;;;4346227;33;43795;-78
2021/10/15 04:52:38;;;;;;;;;;;11.40;93.70;;;;;;4333674;33;45199;-78
2021/10/15 04:55:07;;;;;;;;;;;11.40;93.70;;;;;;4346168;33;42874;-78
2021/10/15 04:57:35;;;;;;;;;;;11.30;93.70;;;;;;4333090;33;42872;-77
2021/10/15 05:00:03;;;;;;;;;;;11.40;93.70;;;;;;4333933;33;20028;-77
2021/10/15 05:02:36;;;;;;;;;;;11.40;93.70;;;;;;4345874;33;42624;-78
2021/10/15 05:05:06;;;;;;;;;;;11.40;93.70;;;;;;4345913;33;42867;-78
2021/10/15 05:07:38;;;;;;;;;;;11.40;93.70;;;;;;4346276;33;42851;-77
2021/10/15 05:10:11;;;;;;;;;;;11.30;93.70;;;;;;4346413;33;43371;-78
2021/10/15 05:12:43;;;;;;;;;;;11.30;93.70;;;;;;4346427;33;44759;-78
2021/10/15 05:15:13;;;;;;;;;;;11.40;93.70;;;;;;4346427;33;43912;-77
2021/10/15 05:17:40;;;;;;;;;;;11.30;93.70;;;;;;4345828;33;43311;-77
2021/10/15 05:20:11;;;;;;;;;;;11.30;93.70;;;;;;4332766;33;42939;-78
2021/10/15 05:22:44;;;;;;;;;;;11.40;93.70;;;;;;4346023;33;43286;-77
2021/10/15 05:25:11;;;;;;;;;;;11.40;93.60;;;;;;4346020;33;43274;-77
2021/10/15 05:27:39;;;;;;;;;;;11.40;93.60;;;;;;4345896;33;44037;-77
2021/10/15 05:30:07;;;;;;;;;;;11.40;93.60;;;;;;4346813;33;20001;-77
2021/10/15 05:32:37;;;;;;;;;;;11.40;93.60;;;;;;4333136;33;43235;-77
2021/10/15 05:35:08;;;;;;;;;;;11.40;93.60;;;;;;4345851;33;43392;-77
2021/10/15 05:37:35;;;;;;;;;;;11.40;93.60;;;;;;4332393;33;43477;-78
2021/10/15 05:40:05;;;;;;;;;;;11.40;93.60;;;;;;4332328;33;42593;-78
2021/10/15 05:42:38;;;;;;;;;;;11.30;93.60;;;;;;4332069;33;42235;-78
2021/10/15 05:45:06;;;;;;;;;;;11.40;93.70;;;;;;4344908;33;42840;-77
2021/10/15 05:47:38;;;;;;;;;;;11.40;93.60;;;;;;4345693;33;43493;-78
2021/10/15 05:50:11;;;;;;;;;;;11.40;93.60;;;;;;4332163;33;42575;-78
2021/10/15 05:52:47;;;;;;;;;;;11.40;93.60;;;;;;4332224;33;42212;-77
2021/10/15 06:00:36;;;;;;;;;;;11.40;93.60;;;;;;4346731;33;20425;-77
2021/10/15 06:03:09;;;;;;;;;;;11.40;93.60;;;;;;4345258;33;42137;-78
2021/10/15 06:14:17;;;;;;;;;;;11.40;93.70;;;;;;4345296;33;43486;-78
2021/10/15 06:16:53;;;;;;;;;;;11.40;93.70;;;;;;4332353;33;43046;-77
2021/10/15 06:19:25;;;;;;;;;;;11.40;93.70;;;;;;4345171;33;42587;-78
2021/10/15 06:21:52;;;;;;;;;;;11.40;93.60;;;;;;4332300;33;45822;-78
2021/10/15 06:24:20;;;;;;;;;;;11.50;93.70;;;;;;4331850;33;43572;-78
2021/10/15 06:26:55;;;;;;;;;;;11.50;93.70;;;;;;4345466;33;42213;-78
2021/10/15 06:29:28;;;;;;;;;;;11.50;93.70;;;;;;4345413;33;43031;-77
2021/10/15 06:31:55;;;;;;;;;;;11.40;93.70;;;;;;4345614;33;43694;-78
2021/10/15 06:34:29;;;;;;;;;;;11.40;93.70;;;;;;4331843;33;42767;-77
2021/10/15 06:36:56;;;;;;;;;;;11.50;93.70;;;;;;4332094;33;43693;-77
2021/10/15 06:39:26;;;;;;;;;;;11.40;93.70;;;;;;4345091;33;44211;-77
2021/10/15 06:41:53;;;;;;;;;;;11.50;93.70;;;;;;4345057;33;44209;-78
2021/10/15 06:44:23;;;;;;;;;;;11.50;93.80;;;;;;4331729;33;42558;-77
2021/10/15 06:46:56;;;;;;;;;;;11.50;93.80;;;;;;4332002;33;43477;-78
2021/10/15 06:49:26;;;;;;;;;;;11.50;93.80;;;;;;4345350;33;43946;-78
2021/10/15 06:51:53;;;;;;;;;;;11.50;93.80;;;;;;4331659;33;45585;-78
2021/10/15 06:54:20;;;;;;;;;;;11.50;93.80;;;;;;4345264;33;43101;-78
2021/10/15 06:56:50;;;;;;;;;;;11.50;93.80;;;;;;4334111;33;44672;-78
2021/10/15 06:59:23;;;;;;;;;;;11.50;93.80;;;;;;4348200;33;43224;-77
2021/10/15 07:01:53;;;;;;;;;;;11.50;93.80;;;;;;4348654;33;20018;-77
2021/10/15 07:04:26;;;;;;;;;;;11.50;93.80;;;;;;4334930;33;46045;-77
2021/10/15 07:06:56;;;;;;;;;;;11.50;93.80;;;;;;4334696;33;42680;-78
2021/10/15 07:09:26;;;;;;;;;;;11.50;93.80;;;;;;4347491;33;43849;-78
2021/10/15 07:11:58;;;;;;;;;;;11.50;93.80;;;;;;4348112;33;44247;-78
2021/10/15 07:14:27;;;;;;;;;;;11.50;93.90;;;;;;4347834;33;44044;-77
2021/10/15 07:16:54;;;;;;;;;;;11.50;93.90;;;;;;4334234;33;42095;-78
2021/10/15 07:19:22;;;;;;;;;;;11.50;93.90;;;;;;4334659;33;43361;-78
2021/10/15 07:21:52;;;;;;;;;;;11.50;93.90;;;;;;4347746;33;43033;-78
2021/10/15 07:24:19;;;;;;;;;;;11.50;93.90;;;;;;4334078;33;43598;-77
2021/10/15 07:26:46;;;;;;;;;;;11.50;93.90;;;;;;4333912;33;43623;-78
2021/10/15 07:29:18;;;;;;;;;;;11.50;93.90;;;;;;4347249;33;42057;-78
2021/10/15 07:31:52;;;;;;;;;;;11.50;93.90;;;;;;4334091;33;42539;-77
2021/10/15 07:34:19;;;;;;;;;;;11.60;93.90;;;;;;4347549;33;44706;-77
2021/10/15 07:36:52;;;;;;;;;;;11.50;93.90;;;;;;4347104;33;44322;-78
2021/10/15 07:39:31;;;;;;;;;;;11.50;93.90;;;;;;4334829;33;44146;-78
2021/10/15 07:41:58;;;;;;;;;;;11.60;94.00;;;;;;4347604;33;44607;-77
2021/10/15 07:44:28;;;;;;;;;;;11.50;94.00;;;;;;4334274;33;43692;-78
2021/10/15 07:47:06;;;;;;;;;;;11.60;94.00;;;;;;4334146;33;43765;-78
2021/10/15 07:49:37;;;;;;;;;;;11.60;94.00;;;;;;4334337;33;44199;-78
2021/10/15 07:52:10;;;;;;;;;;;11.50;94.00;;;;;;4347462;33;44258;-77
2021/10/15 07:54:37;;;;;;;;;;;11.60;94.10;;;;;;4334254;33;44032;-78
2021/10/15 07:57:12;;;;;;;;;;;11.60;94.10;;;;;;4333929;33;45760;-78
2021/10/15 07:59:43;;;;;;;;;;;11.60;94.10;;;;;;4347363;33;43478;-78
2021/10/15 08:02:15;;;;;;;;;;;11.60;94.20;;;;;;4346680;33;44132;-77
2021/10/15 08:04:43;;;;;;;;;;;11.60;94.20;;;;;;4347429;33;43689;-77
2021/10/15 08:07:12;;;;;;;;;;;11.60;94.20;;;;;;4346567;33;43317;-77
2021/10/15 08:09:42;;;;;;;;;;;11.60;94.20;;;;;;4346877;33;42636;-77
2021/10/15 08:12:09;;;;;;;;;;;11.60;94.20;;;;;;4346676;33;43618;-78
2021/10/15 08:14:41;;;;;;;;;;;11.70;94.20;;;;;;4346641;33;42783;-77
2021/10/15 08:17:11;;;;;;;;;;;11.70;94.30;;;;;;4333739;33;44231;-76
2021/10/15 08:19:42;;;;;;;;;;;11.70;94.30;;;;;;4347051;33;44898;-77
2021/10/15 08:22:12;;;;;;;;;;;11.70;94.30;;;;;;4333530;33;43610;-77
2021/10/15 08:24:41;;;;;;;;;;;11.70;94.30;;;;;;4346555;33;43663;-78
2021/10/15 08:27:11;;;;;;;;;;;11.70;94.30;;;;;;4347079;33;44012;-78
2021/10/15 08:29:43;;;;;;;;;;;11.70;94.40;;;;;;4346993;33;43498;-77
2021/10/15 08:32:10;;;;;;;;;;;11.80;94.40;;;;;;4346717;33;43482;-77
2021/10/15 08:34:40;;;;;;;;;;;11.80;94.40;;;;;;4333704;33;44284;-78
2021/10/15 08:37:13;;;;;;;;;;;11.80;94.40;;;;;;4333244;33;44196;-77
2021/10/15 08:39:41;;;;;;;;;;;11.80;94.40;;;;;;4346799;33;43863;-78
2021/10/15 08:42:10;;;;;;;;;;;11.80;94.40;;;;;;4333613;33;43495;-76
2021/10/15 08:44:41;;;;;;;;;;;11.80;94.50;;;;;;4333416;33;44101;-77
2021/10/15 08:47:19;;;;;;;;;;;11.80;94.50;;;;;;4346237;33;42496;-78
2021/10/15 08:50:11;;;;;;;;;;;11.80;94.50;;;;;;4346420;33;43961;-77
2021/10/15 08:52:47;;;;;;;;;;;11.90;94.50;;;;;;4333757;33;43475;-78
2021/10/15 08:55:25;;;;;;;;;;;11.90;94.70;;;;;;4346018;33;43443;-77
2021/10/15 08:58:09;;;;;;;;;;;12.00;94.60;;;;;;4333089;33;43431;-77
2021/10/15 09:00:39;;;;;;;;;;;12.00;94.70;;;;;;4333556;33;43482;-76
2021/10/15 09:03:23;;;;;;;;;;;12.00;94.70;;;;;;4332464;33;45566;-78
2021/10/15 09:05:55;;;;;;;;;;;12.00;94.70;;;;;;4332644;33;44593;-77
2021/10/15 09:08:26;;;;;;;;;;;12.00;94.60;;;;;;4346367;33;44209;-78
2021/10/15 09:10:54;;;;;;;;;;;12.00;94.60;;;;;;4346396;33;43204;-77
2021/10/15 09:13:26;;;;;;;;;;;12.00;94.60;;;;;;4345993;33;43404;-77
2021/10/15 09:15:58;;;;;;;;;;;12.10;94.70;;;;;;4346068;33;42681;-78
2021/10/15 09:18:32;;;;;;;;;;;12.10;94.70;;;;;;4345873;33;42439;-78
2021/10/15 09:21:16;;;;;;;;;;;12.10;94.70;;;;;;4346033;33;44183;-77
2021/10/15 09:23:46;;;;;;;;;;;12.10;94.70;;;;;;4346285;33;43809;-77
2021/10/15 09:26:18;;;;;;;;;;;12.10;94.70;;;;;;4332601;33;42028;-76
2021/10/15 09:28:48;;;;;;;;;;;12.10;94.70;;;;;;4346164;33;43172;-77
2021/10/15 09:31:15;;;;;;;;;;;12.20;94.80;;;;;;4346028;33;43815;-78
2021/10/15 09:33:54;;;;;;;;;;;12.20;94.80;;;;;;4332728;33;42880;-78
2021/10/15 09:36:27;;;;;;;;;;;12.20;94.80;;;;;;4346454;33;19997;-78
2021/10/15 09:39:14;;;;;;;;;;;12.20;94.80;;;;;;4346002;33;43696;-78
2021/10/15 09:41:44;;;;;;;;;;;12.20;94.90;;;;;;4344690;33;43646;-78
2021/10/15 09:44:33;;;;;;;;;;;12.20;95.00;;;;;;4332382;33;44757;-77
2021/10/15 09:47:13;;;;;;;;;;;12.20;94.90;;;;;;4345926;33;44195;-76
2021/10/15 09:50:05;;;;;;;;;;;12.20;94.90;;;;;;4332631;33;43884;-78
2021/10/15 09:52:34;;;;;;;;;;;12.30;95.00;;;;;;4345735;33;42915;-77
2021/10/15 09:55:03;;;;;;;;;;;12.30;95.00;;;;;;4331895;33;45309;-77
2021/10/15 09:57:34;;;;;;;;;;;12.30;95.00;;;;;;4345195;33;43207;-77
2021/10/15 10:00:04;;;;;;;;;;;12.30;95.00;;;;;;4345583;33;43681;-77
2021/10/15 10:02:35;;;;;;;;;;;12.30;95.00;;;;;;4332135;33;43766;-78
2021/10/15 10:05:04;;;;;;;;;;;12.30;95.00;;;;;;4332365;33;43355;-77
2021/10/15 10:07:36;;;;;;;;;;;12.30;95.00;;;;;;4346189;33;20001;-77
2021/10/15 10:10:04;;;;;;;;;;;12.40;95.10;;;;;;4332440;33;43491;-76
2021/10/15 10:12:36;;;;;;;;;;;12.40;95.10;;;;;;4331812;33;42647;-78
2021/10/15 10:15:07;;;;;;;;;;;12.40;95.10;;;;;;4345507;33;42782;-78
2021/10/15 10:17:38;;;;;;;;;;;12.40;95.10;;;;;;4345497;33;43268;-78
2021/10/15 10:20:08;;;;;;;;;;;12.40;95.10;;;;;;4331864;33;44208;-77
2021/10/15 10:22:36;;;;;;;;;;;12.40;95.20;;;;;;4332239;33;43850;-78
2021/10/15 10:25:17;;;;;;;;;;;12.40;95.20;;;;;;4345496;33;45513;-78
2021/10/15 10:27:44;;;;;;;;;;;12.50;95.20;;;;;;4345483;33;43891;-78
2021/10/15 10:30:19;;;;;;;;;;;12.50;95.30;;;;;;4344865;33;42875;-77
2021/10/15 10:33:01;;;;;;;;;;;12.50;95.30;;;;;;4344893;33;43823;-79
2021/10/15 10:35:36;;;;;;;;;;;12.50;95.30;;;;;;4345397;33;43248;-79
2021/10/15 10:38:19;;;;;;;;;;;12.50;95.30;;;;;;4333217;33;20126;-80
2021/10/15 10:41:00;;;;;;;;;;;12.50;95.30;;;;;;4333321;33;43841;-79
2021/10/15 10:43:30;;;;;;;;;;;12.50;95.30;;;;;;4344679;33;43733;-79
2021/10/15 10:46:17;;;;;;;;;;;12.50;95.70;;;;;;4344889;33;43302;-80
2021/10/15 10:48:50;;;;;;;;;;;12.50;95.30;;;;;;4331506;33;43046;-79
2021/10/15 10:51:18;;;;;;;;;;;12.50;95.40;;;;;;4345037;33;43591;-79
2021/10/15 10:54:04;;;;;;;;;;;12.50;95.40;;;;;;4345019;33;44227;-79
2021/10/15 10:56:43;;;;;;;;;;;12.50;95.40;;;;;;4345115;33;44227;-80
2021/10/15 11:01:45;;;;;;;;;;;12.50;95.40;;;;;;4345180;33;43414;-79
2021/10/15 11:04:25;;;;;;;;;;;12.60;95.50;;;;;;4331567;33;44944;-79
2021/10/15 11:06:53;;;;;;;;;;;12.50;95.50;;;;;;4331820;33;43913;-80
2021/10/15 11:09:42;;;;;;;;;;;12.50;95.50;;;;;;4332626;33;20001;-80
2021/10/15 11:12:13;;;;;;;;;;;12.50;95.60;;;;;;4331519;33;43272;-80
2021/10/15 11:14:58;;;;;;;;;;;12.50;95.60;;;;;;4344680;33;43421;-80
2021/10/15 11:17:29;;;;;;;;;;;12.50;95.70;;;;;;4331273;33;44049;-80
2021/10/15 11:20:25;;;;;;;;;;;12.60;95.70;;;;;;4344957;33;43712;-80
2021/10/15 11:22:55;;;;;;;;;;;12.50;95.60;;;;;;4313002;33;42485;-80
2021/10/15 11:25:33;;;;;;;;;;;12.50;95.60;;;;;;4331169;33;43258;-80
2021/10/15 11:28:07;;;;;;;;;;;12.60;95.70;;;;;;4331129;33;43304;-80
2021/10/15 11:30:37;;;;;;;;;;;12.50;95.70;;;;;;4344950;33;43161;-80
2021/10/15 11:33:06;;;;;;;;;;;12.50;95.70;;;;;;4345034;33;44450;-81
2021/10/15 11:35:37;;;;;;;;;;;12.50;95.70;;;;;;4331186;33;44851;-80
2021/10/15 11:38:08;;;;;;;;;;;12.60;95.80;;;;;;4331251;33;43071;-80
2021/10/15 11:40:38;;;;;;;;;;;12.60;95.80;;;;;;4332133;33;20001;-80
2021/10/15 11:43:06;;;;;;;;;;;12.60;95.80;;;;;;4345909;33;44262;-80
2021/10/15 11:45:34;;;;;;;;;;;12.60;95.80;;;;;;4347090;33;44903;-80
2021/10/15 11:48:09;;;;;;;;;;;12.60;95.80;;;;;;4347681;33;43444;-80
2021/10/15 11:50:41;;;;;;;;;;;12.50;95.80;;;;;;4347413;33;45959;-80
2021/10/15 11:53:09;;;;;;;;;;;12.60;95.80;;;;;;4347050;33;43444;-80
2021/10/15 11:55:37;;;;;;;;;;;12.60;95.80;;;;;;4346830;33;44141;-81
2021/10/15 11:58:13;;;;;;;;;;;12.60;95.80;;;;;;4347628;33;45742;-80
2021/10/15 12:01:00;;;;;;;;;;;12.60;95.80;;;;;;4347059;33;43858;-80
2021/10/15 12:03:27;;;;;;;;;;;12.60;95.80;;;;;;4346989;33;43300;-80
2021/10/15 12:06:08;;;;;;;;;;;12.60;95.80;;;;;;4347135;33;44590;-80
2021/10/15 12:08:35;;;;;;;;;;;12.60;95.80;;;;;;4346943;33;44127;-80
2021/10/15 12:11:05;;;;;;;;;;;12.60;95.80;;;;;;4347763;33;20001;-80
2021/10/15 12:13:32;;;;;;;;;;;12.60;95.80;;;;;;4346751;33;43784;-80
2021/10/15 12:15:59;;;;;;;;;;;12.60;95.80;;;;;;4346474;33;44523;-80
2021/10/15 12:18:30;;;;;;;;;;;12.60;95.80;;;;;;4347028;33;43920;-81
2021/10/15 12:21:12;;;;;;;;;;;12.60;95.80;;;;;;4347155;33;44434;-80
2021/10/15 12:23:52;;;;;;;;;;;12.60;95.80;;;;;;4333688;33;43269;-80
2021/10/15 12:26:20;;;;;;;;;;;12.60;95.80;;;;;;4347034;33;43886;-80
2021/10/15 12:28:47;;;;;;;;;;;12.60;95.80;;;;;;4346407;33;43373;-80
2021/10/15 12:31:44;;;;;;;;;;;12.60;95.80;;;;;;4333128;33;43109;-80
2021/10/15 12:34:14;;;;;;;;;;;12.60;95.80;;;;;;4320837;33;43021;-80
2021/10/15 12:36:41;;;;;;;;;;;12.60;95.80;;;;;;4346314;33;42745;-80
2021/10/15 12:39:15;;;;;;;;;;;12.60;95.80;;;;;;4333004;33;44215;-80
2021/10/15 12:41:48;;;;;;;;;;;12.60;95.80;;;;;;4347250;33;20378;-80
2021/10/15 12:44:23;;;;;;;;;;;12.60;95.80;;;;;;4346471;33;44961;-80
2021/10/15 12:47:04;;;;;;;;;;;12.60;95.80;;;;;;4346707;33;44073;-81
2021/10/15 12:49:51;;;;;;;;;;;12.60;95.80;;;;;;4346436;33;44308;-81
2021/10/15 12:52:38;;;;;;;;;;;12.60;95.80;;;;;;4346543;33;44186;-80
2021/10/15 12:55:17;;;;;;;;;;;12.60;95.80;;;;;;4333052;33;44110;-80
2021/10/15 12:57:45;;;;;;;;;;;12.60;95.80;;;;;;4333509;33;43189;-80
2021/10/15 13:00:14;;;;;;;;;;;12.60;95.70;;;;;;4332801;33;44192;-80
2021/10/15 13:02:42;;;;;;;;;;;12.60;95.70;;;;;;4345689;33;43073;-80
2021/10/15 13:05:12;;;;;;;;;;;12.60;95.80;;;;;;4333087;33;43898;-80
2021/10/15 13:07:39;;;;;;;;;;;12.60;95.70;;;;;;4346105;33;42783;-80
2021/10/15 13:10:12;;;;;;;;;;;12.60;95.70;;;;;;4346328;33;43859;-80
2021/10/15 13:12:39;;;;;;;;;;;12.60;95.70;;;;;;4346664;33;20961;-80
2021/10/15 13:15:07;;;;;;;;;;;12.60;95.70;;;;;;4332453;33;43743;-80
2021/10/15 13:17:35;;;;;;;;;;;12.70;95.80;;;;;;4332590;33;43890;-80
2021/10/15 13:20:02;;;;;;;;;;;12.60;95.70;;;;;;4346015;33;43630;-80
2021/10/15 13:22:29;;;;;;;;;;;12.70;95.80;;;;;;4332344;33;44315;-80
2021/10/15 13:24:59;;;;;;;;;;;12.60;95.70;;;;;;4332366;33;42772;-80
2021/10/15 13:27:26;;;;;;;;;;;12.60;95.70;;;;;;4346040;33;43552;-80
2021/10/15 13:29:53;;;;;;;;;;;12.60;95.70;;;;;;4332748;33;43145;-80
2021/10/15 13:32:20;;;;;;;;;;;12.60;95.70;;;;;;4332475;33;42691;-80
2021/10/15 13:34:51;;;;;;;;;;;12.60;95.70;;;;;;4332347;33;43954;-80
2021/10/15 13:37:22;;;;;;;;;;;12.60;95.70;;;;;;4332755;33;43122;-80
2021/10/15 13:39:52;;;;;;;;;;;12.60;95.70;;;;;;4346143;33;43307;-80
2021/10/15 13:49:41;;;;;;;;;;;12.60;95.70;;;;;;4345799;33;44208;-79
2021/10/15 13:50:34;;;;;;;;;;;12.60;95.70;;;;;;4344949;33;43720;-80
2021/10/15 13:53:05;;;;;;;;;;;12.70;95.70;;;;;;4345285;33;43979;-80
2021/10/15 13:55:44;;;;;;;;;;;12.70;95.70;;;;;;4332652;33;43259;-80
2021/10/15 13:58:18;;;;;;;;;;;12.70;95.70;;;;;;4345513;33;43354;-80
2021/10/15 14:00:47;;;;;;;;;;;12.70;95.70;;;;;;4345567;33;43986;-80
2021/10/15 14:06:08;;;;;;;;;;;12.70;95.70;;;;;;4322304;33;42488;-80
2021/10/15 14:08:35;;;;;;;;;;;12.70;95.60;;;;;;4345537;33;43477;-80
2021/10/15 14:11:05;;;;;;;;;;;12.70;95.60;;;;;;4345597;33;43491;-80
2021/10/15 14:13:33;;;;;;;;;;;12.70;95.60;;;;;;4331743;33;42867;-80
2021/10/15 14:16:00;;;;;;;;;;;12.70;95.60;;;;;;4346184;33;20095;-80
2021/10/15 14:18:30;;;;;;;;;;;12.70;95.60;;;;;;4345149;33;43670;-80
2021/10/15 14:20:58;;;;;;;;;;;12.70;95.60;;;;;;4345557;33;42918;-80
2021/10/15 14:23:30;;;;;;;;;;;12.70;95.60;;;;;;4332673;33;43167;-80
2021/10/15 14:25:57;;;;;;;;;;;12.70;95.60;;;;;;4345507;33;43484;-80
2021/10/15 14:28:25;;;;;;;;;;;12.70;95.60;;;;;;4344846;33;43469;-80
2021/10/15 14:30:52;;;;;;;;;;;12.70;95.60;;;;;;4344947;33;43258;-80
2021/10/15 14:33:19;;;;;;;;;;;12.70;95.60;;;;;;4332195;33;43531;-80
2021/10/15 14:35:46;;;;;;;;;;;12.70;95.60;;;;;;4345371;33;43986;-80
2021/10/15 14:38:16;;;;;;;;;;;12.70;95.60;;;;;;4331979;33;44947;-80
2021/10/15 14:40:44;;;;;;;;;;;12.80;95.60;;;;;;4331459;33;44727;-80
2021/10/15 14:43:11;;;;;;;;;;;12.80;95.60;;;;;;4344943;33;43854;-80
2021/10/15 14:45:38;;;;;;;;;;;12.80;95.60;;;;;;4344677;33;43284;-80
2021/10/15 14:48:08;;;;;;;;;;;12.80;95.60;;;;;;4344765;33;43724;-80
2021/10/15 14:50:35;;;;;;;;;;;12.80;95.60;;;;;;4344727;33;43473;-80
2021/10/15 14:53:02;;;;;;;;;;;12.80;95.60;;;;;;4345340;33;43880;-80
2021/10/15 14:55:30;;;;;;;;;;;12.80;95.60;;;;;;4345094;33;42912;-80
2021/10/15 14:58:05;;;;;;;;;;;12.80;95.60;;;;;;4344806;33;43613;-80
2021/10/15 15:00:35;;;;;;;;;;;12.80;95.60;;;;;;4331448;33;42529;-80
2021/10/15 15:03:03;;;;;;;;;;;12.80;95.60;;;;;;4344407;33;43474;-80